Time;durP1;ratioP1;P1;durP2;ratioP2;P2;SDS_P1;SDS_P2;PMS_P1;PMS_P2;Temp;Humidity;BMP_temperature;BMP_pressure;BME280_temperature;BME280_humidity;BME280_pressure;Samples;Min_cycle;Max_cycle;Signal;HPM_P1;HPM_P2
2022/03/26 00:01:54;;;;;;;54.37;29.03;;;;;;;;;;5079957;28;20456;-73
2022/03/26 00:04:22;;;;;;;56.67;24.83;;;;;;;;;;5079931;28;20863;-72
2022/03/26 00:06:50;;;;;;;54.30;32.80;;;;;;;;;;5079733;28;20488;-72
2022/03/26 00:09:19;;;;;;;57.37;35.97;;;;;;;;;;5080269;28;20578;-72
2022/03/26 00:11:48;;;;;;;54.57;28.50;;;;;;;;;;5079103;28;20476;-72
2022/03/26 00:14:19;;;;;;;50.27;26.77;;;;;;;;;;5080531;28;20483;-72
2022/03/26 00:16:46;;;;;;;49.40;26.47;;;;;;;;;;5080312;28;20880;-72
2022/03/26 00:19:15;;;;;;;59.23;26.67;;;;;;;;;;5080116;28;20908;-72
2022/03/26 00:21:45;;;;;;;49.60;26.20;;;;;;;;;;5079641;28;20499;-72
2022/03/26 00:24:12;;;;;;;52.67;27.33;;;;;;;;;;5080150;28;20468;-72
2022/03/26 00:26:44;;;;;;;49.40;26.37;;;;;;;;;;5077024;28;20741;-72
2022/03/26 00:29:11;;;;;;;56.17;31.40;;;;;;;;;;5063160;28;20538;-72
2022/03/26 00:31:39;;;;;;;52.47;28.87;;;;;;;;;;5059942;28;20468;-73
2022/03/26 00:34:07;;;;;;;54.83;25.90;;;;;;;;;;5059204;28;20457;-72
2022/03/26 00:36:35;;;;;;;52.93;27.97;;;;;;;;;;5059208;28;20892;-72
2022/03/26 00:39:02;;;;;;;59.00;30.20;;;;;;;;;;5058135;28;20820;-72
2022/03/26 00:41:33;;;;;;;54.47;26.60;;;;;;;;;;5059552;28;20467;-72
2022/03/26 00:44:03;;;;;;;49.40;25.70;;;;;;;;;;5059175;28;20457;-72
2022/03/26 00:46:32;;;;;;;52.20;26.83;;;;;;;;;;5059065;28;20516;-72
2022/03/26 00:49:01;;;;;;;54.93;27.30;;;;;;;;;;5075192;28;20949;-72
2022/03/26 00:51:29;;;;;;;49.57;26.77;;;;;;;;;;5078517;28;20468;-72
2022/03/26 00:53:56;;;;;;;51.07;25.70;;;;;;;;;;5059857;28;20460;-72
2022/03/26 00:56:24;;;;;;;48.40;26.67;;;;;;;;;;5059278;28;20465;-72
2022/03/26 00:58:52;;;;;;;56.33;30.40;;;;;;;;;;5058471;28;20554;-72
2022/03/26 01:01:21;;;;;;;48.77;23.90;;;;;;;;;;5068750;28;20539;-72
2022/03/26 01:03:49;;;;;;;50.47;26.67;;;;;;;;;;5079404;28;20457;-72
2022/03/26 01:06:18;;;;;;;59.10;40.10;;;;;;;;;;5078893;28;20521;-72
2022/03/26 01:08:50;;;;;;;52.47;34.87;;;;;;;;;;5073283;28;21022;-72
2022/03/26 01:11:18;;;;;;;46.33;23.80;;;;;;;;;;5079063;28;20558;-72
2022/03/26 01:13:53;;;;;;;52.80;28.90;;;;;;;;;;5076686;28;20445;-72
2022/03/26 01:16:23;;;;;;;52.73;36.70;;;;;;;;;;5079128;28;20465;-72
2022/03/26 01:18:52;;;;;;;51.77;38.57;;;;;;;;;;5078738;28;20570;-72
2022/03/26 01:21:19;;;;;;;54.10;36.27;;;;;;;;;;5078314;28;20466;-72
2022/03/26 01:23:50;;;;;;;50.10;24.93;;;;;;;;;;5066478;28;20476;-72
2022/03/26 01:26:22;;;;;;;52.67;36.03;;;;;;;;;;5078361;28;20518;-72
2022/03/26 01:29:01;;;;;;;62.37;39.70;;;;;;;;;;5078673;28;20493;-72
2022/03/26 01:31:31;;;;;;;52.87;28.00;;;;;;;;;;5069910;28;20560;-72
2022/03/26 01:34:00;;;;;;;50.27;25.73;;;;;;;;;;5058455;28;20457;-72
2022/03/26 01:36:29;;;;;;;56.40;35.03;;;;;;;;;;5058397;28;20854;-72
2022/03/26 01:38:58;;;;;;;42.17;29.20;;;;;;;;;;5057971;28;20496;-72
2022/03/26 01:41:25;;;;;;;60.33;23.70;;;;;;;;;;5058572;28;20724;-72
2022/03/26 01:43:54;;;;;;;48.43;24.80;;;;;;;;;;5058656;28;20527;-72
2022/03/26 01:46:21;;;;;;;60.60;38.47;;;;;;;;;;5058288;28;20465;-72
2022/03/26 01:48:56;;;;;;;56.43;29.87;;;;;;;;;;5058507;28;20460;-72
2022/03/26 01:51:24;;;;;;;54.90;31.17;;;;;;;;;;5057917;28;20530;-72
2022/03/26 01:53:53;;;;;;;59.60;36.70;;;;;;;;;;5057810;28;20477;-72
2022/03/26 01:56:21;;;;;;;52.83;35.17;;;;;;;;;;5057942;28;20857;-73
2022/03/26 01:58:49;;;;;;;55.70;38.37;;;;;;;;;;5058257;28;20454;-72
2022/03/26 02:01:17;;;;;;;59.13;43.93;;;;;;;;;;5057144;28;20457;-72
2022/03/26 02:03:45;;;;;;;84.23;63.00;;;;;;;;;;5076333;28;20781;-72
2022/03/26 02:06:15;;;;;;;60.30;46.30;;;;;;;;;;5076533;28;20742;-72
2022/03/26 02:08:45;;;;;;;59.40;42.93;;;;;;;;;;5070199;28;20471;-72
2022/03/26 02:11:13;;;;;;;59.67;40.77;;;;;;;;;;5077933;28;20472;-72
2022/03/26 02:13:50;;;;;;;57.50;40.50;;;;;;;;;;5078022;28;20444;-73
2022/03/26 02:16:18;;;;;;;52.10;36.93;;;;;;;;;;5077958;28;20551;-73
2022/03/26 02:18:46;;;;;;;48.47;35.03;;;;;;;;;;5077795;28;20526;-73
2022/03/26 02:21:16;;;;;;;53.67;30.70;;;;;;;;;;5077570;28;20453;-71
2022/03/26 02:23:49;;;;;;;55.90;27.40;;;;;;;;;;5077059;28;20543;-73
2022/03/26 02:26:21;;;;;;;46.47;26.07;;;;;;;;;;5077741;28;20475;-72
2022/03/26 02:28:49;;;;;;;55.10;27.90;;;;;;;;;;5077487;28;20456;-72
2022/03/26 02:31:20;;;;;;;44.83;25.97;;;;;;;;;;5077130;28;20461;-72
2022/03/26 02:33:48;;;;;;;50.30;29.27;;;;;;;;;;5077765;28;20555;-73
2022/03/26 02:36:18;;;;;;;53.93;36.43;;;;;;;;;;5077734;28;20908;-73
2022/03/26 02:38:46;;;;;;;46.13;25.80;;;;;;;;;;5077335;28;20464;-73
2022/03/26 02:41:13;;;;;;;58.40;33.10;;;;;;;;;;5077280;28;20484;-72
2022/03/26 02:43:41;;;;;;;54.03;38.60;;;;;;;;;;5076894;28;20456;-73
2022/03/26 02:46:09;;;;;;;52.00;39.40;;;;;;;;;;5077747;28;20448;-73
2022/03/26 02:48:39;;;;;;;56.47;43.70;;;;;;;;;;5076960;28;20457;-72
2022/03/26 02:51:07;;;;;;;59.10;46.23;;;;;;;;;;5076906;28;20484;-73
2022/03/26 02:53:38;;;;;;;51.00;31.50;;;;;;;;;;5077438;28;20464;-73
2022/03/26 02:56:06;;;;;;;72.30;51.17;;;;;;;;;;5077358;28;20464;-72
2022/03/26 02:58:37;;;;;;;53.27;34.23;;;;;;;;;;5077285;28;20468;-73
2022/03/26 03:01:05;;;;;;;50.67;35.77;;;;;;;;;;5077073;28;20479;-73
2022/03/26 03:03:33;;;;;;;54.50;35.67;;;;;;;;;;5076600;28;20813;-72
2022/03/26 03:06:00;;;;;;;48.63;24.47;;;;;;;;;;5077173;28;20482;-73
2022/03/26 03:08:28;;;;;;;47.40;27.17;;;;;;;;;;5076206;28;20560;-72
2022/03/26 03:10:57;;;;;;;51.03;31.73;;;;;;;;;;5076985;28;20888;-72
2022/03/26 03:13:25;;;;;;;58.23;33.60;;;;;;;;;;5076792;28;20475;-72
2022/03/26 03:15:58;;;;;;;46.47;37.60;;;;;;;;;;5076047;28;20463;-72
2022/03/26 03:18:29;;;;;;;67.10;42.43;;;;;;;;;;5076444;28;20453;-73
2022/03/26 03:20:58;;;;;;;53.70;35.17;;;;;;;;;;5076365;28;20480;-73
2022/03/26 03:23:29;;;;;;;49.50;30.10;;;;;;;;;;5077223;28;20445;-73
2022/03/26 03:25:58;;;;;;;61.73;44.80;;;;;;;;;;5076482;28;20468;-72
2022/03/26 03:28:28;;;;;;;59.27;40.57;;;;;;;;;;5076761;28;20469;-73
2022/03/26 03:30:56;;;;;;;47.60;36.07;;;;;;;;;;5075877;28;20471;-72
2022/03/26 03:33:26;;;;;;;54.63;37.80;;;;;;;;;;5076345;28;20547;-72
2022/03/26 03:35:56;;;;;;;52.87;34.93;;;;;;;;;;5076358;28;20441;-72
2022/03/26 03:38:24;;;;;;;56.13;39.50;;;;;;;;;;5076869;28;20530;-72
2022/03/26 03:40:52;;;;;;;70.43;50.00;;;;;;;;;;5075916;28;20576;-71
2022/03/26 03:43:26;;;;;;;53.17;35.13;;;;;;;;;;5076356;28;20877;-72
2022/03/26 03:45:57;;;;;;;45.07;25.07;;;;;;;;;;5076281;28;20445;-71
2022/03/26 03:48:25;;;;;;;46.73;23.30;;;;;;;;;;5076627;28;20931;-73
2022/03/26 03:50:53;;;;;;;49.37;24.10;;;;;;;;;;5076655;28;20472;-72
2022/03/26 03:53:23;;;;;;;53.90;27.07;;;;;;;;;;5076055;28;20448;-71
2022/03/26 03:55:51;;;;;;;52.07;24.37;;;;;;;;;;5076525;28;20458;-72
2022/03/26 03:58:19;;;;;;;35.53;18.47;;;;;;;;;;5076723;28;20530;-72
2022/03/26 04:00:48;;;;;;;51.70;25.73;;;;;;;;;;5076108;28;20507;-73
2022/03/26 04:03:19;;;;;;;45.27;23.40;;;;;;;;;;5076217;28;20592;-72
2022/03/26 04:05:46;;;;;;;55.57;24.73;;;;;;;;;;5076713;28;20487;-72
2022/03/26 04:08:14;;;;;;;47.43;24.00;;;;;;;;;;5076071;28;20460;-72
2022/03/26 04:10:43;;;;;;;53.90;27.60;;;;;;;;;;5076429;28;20469;-73
2022/03/26 04:13:12;;;;;;;54.83;26.60;;;;;;;;;;5075651;28;20540;-72
2022/03/26 04:15:47;;;;;;;48.30;23.13;;;;;;;;;;5066143;28;20452;-71
2022/03/26 04:18:20;;;;;;;57.13;28.63;;;;;;;;;;5065798;28;20445;-70
2022/03/26 04:20:51;;;;;;;52.03;27.07;;;;;;;;;;5068355;28;20555;-70
2022/03/26 04:23:19;;;;;;;51.00;25.43;;;;;;;;;;5076542;28;21042;-72
2022/03/26 04:25:47;;;;;;;52.67;25.30;;;;;;;;;;5073380;28;20546;-72
2022/03/26 04:28:14;;;;;;;47.77;26.57;;;;;;;;;;5076148;28;20448;-71
2022/03/26 04:30:42;;;;;;;53.97;27.80;;;;;;;;;;5074458;28;20885;-72
2022/03/26 04:33:10;;;;;;;52.33;28.43;;;;;;;;;;5065061;28;20449;-72
2022/03/26 04:35:39;;;;;;;47.60;24.27;;;;;;;;;;5069821;28;20456;-71
2022/03/26 04:38:06;;;;;;;52.77;26.57;;;;;;;;;;5076151;28;20991;-72
2022/03/26 04:40:34;;;;;;;46.00;22.00;;;;;;;;;;5076178;28;20488;-71
2022/03/26 04:43:04;;;;;;;52.83;30.17;;;;;;;;;;5076767;28;20843;-70
2022/03/26 04:45:32;;;;;;;52.83;23.87;;;;;;;;;;5079960;28;21059;-72
2022/03/26 04:48:00;;;;;;;50.00;22.80;;;;;;;;;;5079428;28;20471;-72
2022/03/26 04:50:28;;;;;;;54.90;40.10;;;;;;;;;;5079898;28;20555;-72
2022/03/26 04:52:57;;;;;;;62.80;35.73;;;;;;;;;;5078947;28;20452;-71
2022/03/26 04:55:26;;;;;;;54.33;24.60;;;;;;;;;;5079612;28;20468;-72
2022/03/26 04:57:54;;;;;;;39.13;32.70;;;;;;;;;;5079277;28;20846;-72
2022/03/26 05:00:22;;;;;;;58.30;26.40;;;;;;;;;;5079048;28;20797;-72
2022/03/26 05:02:50;;;;;;;52.83;30.77;;;;;;;;;;5079051;28;20890;-72
2022/03/26 05:05:20;;;;;;;56.43;30.00;;;;;;;;;;5078998;28;20482;-72
2022/03/26 05:07:48;;;;;;;58.50;27.50;;;;;;;;;;5079209;28;20460;-72
2022/03/26 05:10:18;;;;;;;60.00;28.57;;;;;;;;;;5078892;28;20464;-72
2022/03/26 05:12:47;;;;;;;57.97;27.60;;;;;;;;;;5078509;28;20452;-72
2022/03/26 05:15:15;;;;;;;54.93;28.40;;;;;;;;;;5078575;28;20736;-72
2022/03/26 05:17:43;;;;;;;53.10;26.40;;;;;;;;;;5079121;28;20457;-72
2022/03/26 05:20:18;;;;;;;55.30;28.97;;;;;;;;;;5078751;28;20480;-72
2022/03/26 05:22:47;;;;;;;63.73;30.50;;;;;;;;;;5078479;28;20518;-72
2022/03/26 05:25:15;;;;;;;60.53;26.57;;;;;;;;;;5078600;28;20468;-71
2022/03/26 05:27:46;;;;;;;51.67;27.73;;;;;;;;;;5078485;28;20927;-72
2022/03/26 05:30:14;;;;;;;69.33;29.43;;;;;;;;;;5078671;28;20479;-72
2022/03/26 05:32:42;;;;;;;50.47;26.87;;;;;;;;;;5078264;28;20457;-72
2022/03/26 05:35:11;;;;;;;55.87;27.03;;;;;;;;;;5078919;28;20452;-72
2022/03/26 05:37:45;;;;;;;60.03;30.03;;;;;;;;;;5078307;28;20461;-72
2022/03/26 05:40:15;;;;;;;58.73;30.43;;;;;;;;;;5077912;28;20496;-72
2022/03/26 05:42:43;;;;;;;57.17;28.10;;;;;;;;;;5078896;28;20883;-72
2022/03/26 05:45:12;;;;;;;51.37;29.63;;;;;;;;;;5076411;28;20554;-72
2022/03/26 05:47:40;;;;;;;60.47;33.93;;;;;;;;;;5063459;28;20474;-72
2022/03/26 05:50:09;;;;;;;66.40;39.23;;;;;;;;;;5058029;28;20468;-72
2022/03/26 05:52:36;;;;;;;54.17;27.97;;;;;;;;;;5057785;28;20461;-71
2022/03/26 05:55:04;;;;;;;49.03;28.73;;;;;;;;;;5057739;28;20544;-72
2022/03/26 05:57:33;;;;;;;54.07;37.00;;;;;;;;;;5056823;28;20464;-71
2022/03/26 06:00:01;;;;;;;61.00;29.80;;;;;;;;;;5057436;28;20461;-71
2022/03/26 06:02:30;;;;;;;54.60;28.60;;;;;;;;;;5056822;28;20480;-71
2022/03/26 06:04:57;;;;;;;69.40;36.77;;;;;;;;;;5058056;28;20725;-71
2022/03/26 06:07:26;;;;;;;64.23;38.63;;;;;;;;;;5057346;28;20464;-71
2022/03/26 06:09:54;;;;;;;60.53;28.87;;;;;;;;;;5059044;28;20564;-72
2022/03/26 06:12:22;;;;;;;62.50;32.97;;;;;;;;;;5057718;28;20908;-72
2022/03/26 06:14:52;;;;;;;62.93;32.40;;;;;;;;;;5056205;28;20969;-72
2022/03/26 06:17:21;;;;;;;66.77;46.33;;;;;;;;;;5057343;28;20583;-72
2022/03/26 06:19:50;;;;;;;65.20;31.00;;;;;;;;;;5056732;28;20544;-72
2022/03/26 06:22:21;;;;;;;61.73;33.57;;;;;;;;;;5057247;28;20489;-71
2022/03/26 06:24:48;;;;;;;52.60;34.30;;;;;;;;;;5057126;28;20453;-72
2022/03/26 06:27:17;;;;;;;63.77;35.10;;;;;;;;;;5056227;28;20709;-72
2022/03/26 06:29:45;;;;;;;91.07;50.33;;;;;;;;;;5056030;28;20869;-71
2022/03/26 06:32:13;;;;;;;60.60;33.20;;;;;;;;;;5057390;28;20469;-71
2022/03/26 06:34:42;;;;;;;66.50;36.07;;;;;;;;;;5056064;28;20468;-72
2022/03/26 06:37:12;;;;;;;60.40;35.20;;;;;;;;;;5056517;28;20508;-72
2022/03/26 06:39:40;;;;;;;60.53;31.33;;;;;;;;;;5056774;28;20552;-72
2022/03/26 06:42:08;;;;;;;70.87;33.77;;;;;;;;;;5055797;28;20936;-72
2022/03/26 06:44:39;;;;;;;69.13;34.90;;;;;;;;;;5056655;28;20525;-72
2022/03/26 06:47:10;;;;;;;60.17;34.20;;;;;;;;;;5061031;28;20463;-72
2022/03/26 06:49:39;;;;;;;65.37;34.73;;;;;;;;;;5076763;28;20452;-72
2022/03/26 06:52:07;;;;;;;69.20;36.30;;;;;;;;;;5061560;28;20480;-71
2022/03/26 06:54:37;;;;;;;62.63;33.40;;;;;;;;;;5056982;28;20523;-71
2022/03/26 06:57:05;;;;;;;67.53;32.47;;;;;;;;;;5057904;28;20493;-72
2022/03/26 06:59:33;;;;;;;61.93;35.40;;;;;;;;;;5073387;28;20445;-71
2022/03/26 07:02:00;;;;;;;65.40;35.10;;;;;;;;;;5063017;28;20478;-72
2022/03/26 07:04:31;;;;;;;61.83;32.30;;;;;;;;;;5071523;28;20820;-72
2022/03/26 07:07:00;;;;;;;45.87;32.17;;;;;;;;;;5075079;28;20460;-72
2022/03/26 07:09:28;;;;;;;56.93;32.00;;;;;;;;;;5077113;28;20518;-72
2022/03/26 07:12:01;;;;;;;59.87;32.50;;;;;;;;;;5076431;28;20836;-72
2022/03/26 07:14:33;;;;;;;60.37;30.33;;;;;;;;;;5075852;28;20654;-72
2022/03/26 07:17:07;;;;;;;68.17;32.17;;;;;;;;;;5076198;28;20576;-72
2022/03/26 07:19:35;;;;;;;57.80;31.30;;;;;;;;;;5076661;28;20533;-71
2022/03/26 07:22:06;;;;;;;49.67;26.60;;;;;;;;;;5075869;28;20590;-72
2022/03/26 07:24:37;;;;;;;49.60;27.10;;;;;;;;;;5063834;28;20755;-72
2022/03/26 07:27:06;;;;;;;52.90;27.60;;;;;;;;;;5056967;28;20472;-70
2022/03/26 07:29:35;;;;;;;48.37;29.00;;;;;;;;;;5057919;28;21125;-71
2022/03/26 07:32:03;;;;;;;42.27;25.00;;;;;;;;;;5072500;28;20479;-71
2022/03/26 07:34:32;;;;;;;45.30;25.63;;;;;;;;;;5065686;28;20465;-72
2022/03/26 07:37:01;;;;;;;41.27;20.73;;;;;;;;;;5068928;28;20459;-70
2022/03/26 07:39:29;;;;;;;44.30;25.90;;;;;;;;;;5074070;28;20587;-71
2022/03/26 07:41:58;;;;;;;36.87;22.57;;;;;;;;;;5058837;28;20848;-71
2022/03/26 07:44:27;;;;;;;47.73;35.13;;;;;;;;;;5056457;28;20940;-71
2022/03/26 07:46:55;;;;;;;47.53;31.47;;;;;;;;;;5057739;28;20463;-71
2022/03/26 07:49:22;;;;;;;60.97;27.93;;;;;;;;;;5075818;28;20464;-71
2022/03/26 07:51:50;;;;;;;41.87;21.40;;;;;;;;;;5073321;28;20621;-71
2022/03/26 07:54:18;;;;;;;41.23;21.33;;;;;;;;;;5062063;28;20747;-71
2022/03/26 07:56:45;;;;;;;44.10;27.40;;;;;;;;;;5061266;28;20472;-70
2022/03/26 07:59:13;;;;;;;43.00;26.73;;;;;;;;;;5073042;28;20540;-71
2022/03/26 08:01:43;;;;;;;33.43;19.97;;;;;;;;;;5061036;28;20473;-71
2022/03/26 08:04:12;;;;;;;39.37;27.37;;;;;;;;;;5070864;28;20465;-71
2022/03/26 08:06:46;;;;;;;38.33;24.80;;;;;;;;;;5060782;28;20455;-71
2022/03/26 08:09:14;;;;;;;35.50;22.27;;;;;;;;;;5072494;28;20857;-71
2022/03/26 08:11:48;;;;;;;42.40;30.20;;;;;;;;;;5046899;28;20462;-73
2022/03/26 08:14:22;;;;;;;42.90;20.50;;;;;;;;;;5050380;28;20890;-72
2022/03/26 08:16:52;;;;;;;34.17;21.40;;;;;;;;;;5063861;28;20456;-71
2022/03/26 08:19:22;;;;;;;43.73;26.10;;;;;;;;;;5068408;28;20464;-72
2022/03/26 08:21:55;;;;;;;41.60;23.00;;;;;;;;;;5072789;28;20511;-72
2022/03/26 08:24:25;;;;;;;40.17;24.30;;;;;;;;;;5078283;28;20523;-73
2022/03/26 08:26:55;;;;;;;51.97;36.20;;;;;;;;;;5078536;28;20543;-72
2022/03/26 08:29:23;;;;;;;46.90;23.80;;;;;;;;;;5066739;28;20485;-71
2022/03/26 08:31:52;;;;;;;38.53;25.50;;;;;;;;;;5060104;28;20468;-71
2022/03/26 08:34:20;;;;;;;34.33;30.77;;;;;;;;;;5073135;28;20486;-72
2022/03/26 08:36:48;;;;;;;33.30;21.27;;;;;;;;;;5075739;28;20768;-71
2022/03/26 08:39:16;;;;;;;42.10;25.70;;;;;;;;;;5070404;28;20477;-71
2022/03/26 08:41:45;;;;;;;46.43;25.57;;;;;;;;;;5077172;28;20504;-72
2022/03/26 08:44:13;;;;;;;37.43;22.47;;;;;;;;;;5061186;28;20465;-72
2022/03/26 08:46:41;;;;;;;40.27;27.33;;;;;;;;;;5062962;28;20464;-72
2022/03/26 08:49:14;;;;;;;38.90;20.77;;;;;;;;;;5077272;28;20911;-72
2022/03/26 08:51:42;;;;;;;25.90;18.07;;;;;;;;;;5077917;28;20449;-71
2022/03/26 08:54:09;;;;;;;25.30;14.60;;;;;;;;;;5067483;28;20469;-72
2022/03/26 08:56:37;;;;;;;18.93;12.60;;;;;;;;;;5063122;28;20785;-73
2022/03/26 08:59:08;;;;;;;24.40;22.10;;;;;;;;;;5077388;28;20502;-71
2022/03/26 09:01:39;;;;;;;17.30;10.67;;;;;;;;;;5074317;28;20484;-70
2022/03/26 09:04:09;;;;;;;20.10;13.13;;;;;;;;;;5059477;28;20479;-72
2022/03/26 09:06:38;;;;;;;17.07;10.60;;;;;;;;;;5070420;28;20494;-71
2022/03/26 09:09:06;;;;;;;15.47;10.10;;;;;;;;;;5077653;28;20559;-71
2022/03/26 09:11:35;;;;;;;20.07;14.90;;;;;;;;;;5076574;28;20460;-72
2022/03/26 09:14:02;;;;;;;18.00;10.47;;;;;;;;;;5061638;28;20513;-71
2022/03/26 09:16:31;;;;;;;23.87;14.33;;;;;;;;;;5057659;28;20457;-70
2022/03/26 09:18:59;;;;;;;11.37;8.97;;;;;;;;;;5056565;28;20457;-72
2022/03/26 09:21:29;;;;;;;23.20;12.77;;;;;;;;;;5056018;28;20830;-71
2022/03/26 09:23:59;;;;;;;15.37;9.20;;;;;;;;;;5070568;28;20452;-74
2022/03/26 09:26:27;;;;;;;16.17;10.60;;;;;;;;;;5067168;28;20709;-71
2022/03/26 09:28:57;;;;;;;11.20;7.27;;;;;;;;;;5076102;28;20559;-72
2022/03/26 09:31:25;;;;;;;10.40;8.20;;;;;;;;;;5066818;28;20759;-72
2022/03/26 09:33:52;;;;;;;14.00;8.53;;;;;;;;;;5055941;28;20458;-71
2022/03/26 09:36:27;;;;;;;15.53;11.50;;;;;;;;;;5061483;28;20855;-73
2022/03/26 09:38:55;;;;;;;22.47;17.70;;;;;;;;;;5076470;28;20534;-72
2022/03/26 09:41:31;;;;;;;18.50;14.23;;;;;;;;;;5076296;28;20487;-71
2022/03/26 09:43:59;;;;;;;19.43;16.13;;;;;;;;;;5076033;28;20563;-71
2022/03/26 09:46:28;;;;;;;16.73;10.87;;;;;;;;;;5067648;28;20456;-72
2022/03/26 09:49:00;;;;;;;22.87;20.97;;;;;;;;;;5076111;28;20526;-71
2022/03/26 09:51:28;;;;;;;20.77;19.00;;;;;;;;;;5077328;28;20457;-72
2022/03/26 09:53:58;;;;;;;14.37;11.50;;;;;;;;;;5076387;28;20452;-73
2022/03/26 09:56:28;;;;;;;10.20;7.93;;;;;;;;;;5074068;28;20538;-71
2022/03/26 09:58:59;;;;;;;11.00;8.43;;;;;;;;;;5075966;28;20736;-71
2022/03/26 10:01:45;;;;;;;16.40;11.07;;;;;;;;;;5074082;28;20460;-71
2022/03/26 10:04:16;;;;;;;14.67;9.30;;;;;;;;;;5076362;28;20535;-71
2022/03/26 10:06:54;;;;;;;18.03;9.70;;;;;;;;;;5076128;28;20464;-71
2022/03/26 10:09:45;;;;;;;15.13;11.77;;;;;;;;;;5071334;28;20532;-72
2022/03/26 10:12:24;;;;;;;16.87;11.77;;;;;;;;;;5069419;28;20472;-74
2022/03/26 10:14:53;;;;;;;15.00;8.20;;;;;;;;;;5075355;28;20506;-71
2022/03/26 10:17:30;;;;;;;15.90;10.60;;;;;;;;;;5064037;28;20512;-71
2022/03/26 10:19:59;;;;;;;15.80;12.50;;;;;;;;;;5067655;28;20463;-72
2022/03/26 10:22:31;;;;;;;21.17;11.10;;;;;;;;;;5074560;28;21141;-72
2022/03/26 10:25:00;;;;;;;14.33;10.17;;;;;;;;;;5063167;28;20471;-72
2022/03/26 10:27:33;;;;;;;11.20;6.83;;;;;;;;;;5071464;28;20489;-72
2022/03/26 10:30:03;;;;;;;11.17;7.80;;;;;;;;;;5062698;28;20456;-72
2022/03/26 10:32:39;;;;;;;16.07;9.83;;;;;;;;;;5071071;28;20542;-71
2022/03/26 10:35:09;;;;;;;13.87;10.17;;;;;;;;;;5074749;28;20466;-71
2022/03/26 10:37:53;;;;;;;8.80;6.03;;;;;;;;;;5068857;28;20566;-72
2022/03/26 10:40:23;;;;;;;11.43;7.73;;;;;;;;;;5065410;28;20485;-72
2022/03/26 10:43:00;;;;;;;13.83;8.33;;;;;;;;;;5074992;28;20571;-72
2022/03/26 10:45:29;;;;;;;13.77;8.43;;;;;;;;;;5072633;28;20543;-72
2022/03/26 10:48:00;;;;;;;11.13;7.03;;;;;;;;;;5074000;28;20459;-72
2022/03/26 10:50:35;;;;;;;13.60;9.00;;;;;;;;;;5073578;28;20471;-72
2022/03/26 10:53:06;;;;;;;12.63;8.37;;;;;;;;;;5072692;28;20476;-71
2022/03/26 10:55:35;;;;;;;8.87;5.50;;;;;;;;;;5073060;28;20469;-71
2022/03/26 10:58:10;;;;;;;15.30;8.47;;;;;;;;;;5071654;28;20756;-72
2022/03/26 11:00:40;;;;;;;7.30;5.37;;;;;;;;;;5057165;28;20491;-71
2022/03/26 11:03:07;;;;;;;11.90;8.20;;;;;;;;;;5054037;28;20513;-72
2022/03/26 11:05:41;;;;;;;11.83;8.10;;;;;;;;;;5068685;28;20445;-72
2022/03/26 11:08:20;;;;;;;10.50;7.30;;;;;;;;;;5052159;28;20535;-71
2022/03/26 11:10:50;;;;;;;10.07;7.30;;;;;;;;;;5050107;28;21057;-72
2022/03/26 11:13:20;;;;;;;10.37;6.00;;;;;;;;;;5054364;28;20466;-72
2022/03/26 11:15:53;;;;;;;12.70;7.33;;;;;;;;;;5055306;28;20555;-72
2022/03/26 11:18:36;;;;;;;10.57;8.17;;;;;;;;;;5073329;28;20449;-72
2022/03/26 11:21:32;;;;;;;7.90;5.73;;;;;;;;;;5072945;28;20453;-72
2022/03/26 11:24:16;;;;;;;13.30;9.43;;;;;;;;;;4998082;28;20468;-72
2022/03/26 11:26:59;;;;;;;9.77;5.97;;;;;;;;;;5053278;28;20531;-72
2022/03/26 11:29:39;;;;;;;8.57;6.07;;;;;;;;;;5054545;28;21226;-72
2022/03/26 11:32:13;;;;;;;8.33;5.37;;;;;;;;;;5065629;28;20551;-71
2022/03/26 11:34:41;;;;;;;12.20;7.07;;;;;;;;;;5073421;28;20453;-72
2022/03/26 11:37:19;;;;;;;9.63;5.90;;;;;;;;;;5064614;28;20468;-72
2022/03/26 11:42:53;;;;;;;10.40;7.23;;;;;;;;;;5064423;28;20476;-71
2022/03/26 11:51:20;;;;;;;9.67;7.20;;;;;;;;;;5053386;28;20499;-71
2022/03/26 11:53:58;;;;;;;13.73;5.00;;;;;;;;;;5065066;28;20464;-70
2022/03/26 11:56:31;;;;;;;5.77;4.60;;;;;;;;;;5062024;28;20453;-70
2022/03/26 11:59:15;;;;;;;8.70;4.97;;;;;;;;;;5077102;28;20542;-71
2022/03/26 12:01:46;;;;;;;9.50;4.60;;;;;;;;;;5069742;28;20477;-71
2022/03/26 12:04:16;;;;;;;6.80;4.37;;;;;;;;;;5057990;28;20457;-72
2022/03/26 12:06:47;;;;;;;10.10;5.73;;;;;;;;;;5063429;28;20987;-72
2022/03/26 12:09:31;;;;;;;8.00;5.70;;;;;;;;;;5075270;28;20960;-72
2022/03/26 12:12:16;;;;;;;8.03;4.97;;;;;;;;;;5056940;28;20461;-71
2022/03/26 12:15:16;;;;;;;8.00;6.10;;;;;;;;;;5055938;28;20453;-72
2022/03/26 12:17:52;;;;;;;8.37;7.23;;;;;;;;;;4968933;28;20556;-71
2022/03/26 12:20:21;;;;;;;5.90;4.70;;;;;;;;;;4975737;28;20483;-71
2022/03/26 12:22:55;;;;;;;11.40;7.10;;;;;;;;;;4960148;28;20481;-72
2022/03/26 12:25:37;;;;;;;9.77;7.60;;;;;;;;;;4967535;28;20511;-72
2022/03/26 12:28:07;;;;;;;7.20;5.23;;;;;;;;;;4972123;28;20805;-72
2022/03/26 12:30:36;;;;;;;8.47;7.00;;;;;;;;;;5073005;28;20456;-73
2022/03/26 12:33:15;;;;;;;9.03;5.73;;;;;;;;;;5075359;28;20464;-73
2022/03/26 12:35:47;;;;;;;9.37;7.20;;;;;;;;;;5067964;28;20734;-71
2022/03/26 12:38:16;;;;;;;12.93;9.37;;;;;;;;;;5058523;28;20470;-74
2022/03/26 12:40:59;;;;;;;10.90;7.60;;;;;;;;;;5071105;28;20516;-72
2022/03/26 12:43:31;;;;;;;9.67;6.73;;;;;;;;;;5073354;28;20485;-73
2022/03/26 12:46:04;;;;;;;9.20;7.17;;;;;;;;;;5076388;28;20482;-72
2022/03/26 12:48:36;;;;;;;16.17;11.03;;;;;;;;;;5073680;28;20775;-73
2022/03/26 12:51:05;;;;;;;13.87;8.87;;;;;;;;;;5066631;28;21106;-73
2022/03/26 12:53:37;;;;;;;14.73;10.67;;;;;;;;;;5058485;28;20977;-72
2022/03/26 12:56:13;;;;;;;13.13;10.30;;;;;;;;;;5067102;28;20460;-73
2022/03/26 12:58:58;;;;;;;12.80;10.37;;;;;;;;;;5075312;28;20907;-72
2022/03/26 13:01:28;;;;;;;9.67;7.50;;;;;;;;;;5071607;28;20471;-73
2022/03/26 13:04:00;;;;;;;16.23;13.83;;;;;;;;;;5074880;28;20579;-76
2022/03/26 13:06:41;;;;;;;21.10;13.03;;;;;;;;;;5073081;28;20472;-73
2022/03/26 13:09:15;;;;;;;12.33;9.17;;;;;;;;;;5067843;28;20461;-72
2022/03/26 13:11:51;;;;;;;12.93;11.07;;;;;;;;;;5077825;28;20526;-72
2022/03/26 13:14:23;;;;;;;10.43;8.23;;;;;;;;;;5075641;28;20464;-73
2022/03/26 13:19:45;;;;;;;13.33;10.03;;;;;;;;;;5041463;28;20469;-73
2022/03/26 13:22:16;;;;;;;14.70;9.17;;;;;;;;;;5055972;28;20441;-72
2022/03/26 13:24:51;;;;;;;18.23;7.10;;;;;;;;;;5061547;28;20456;-74
2022/03/26 13:27:19;;;;;;;17.03;8.73;;;;;;;;;;5073445;28;20452;-72
2022/03/26 13:29:47;;;;;;;14.43;9.03;;;;;;;;;;5074431;28;20465;-73
2022/03/26 13:32:18;;;;;;;13.00;7.93;;;;;;;;;;5065777;28;20559;-71
2022/03/26 13:34:50;;;;;;;8.60;6.40;;;;;;;;;;5070671;28;20846;-72
2022/03/26 13:37:30;;;;;;;13.47;8.07;;;;;;;;;;5065840;28;20453;-72
2022/03/26 13:39:59;;;;;;;13.87;9.33;;;;;;;;;;5056961;28;20465;-72
2022/03/26 13:42:30;;;;;;;12.00;6.43;;;;;;;;;;5056138;28;21137;-74
2022/03/26 13:45:03;;;;;;;10.90;7.60;;;;;;;;;;5055221;28;20457;-72
2022/03/26 13:47:35;;;;;;;11.63;8.10;;;;;;;;;;5062085;28;20472;-72
2022/03/26 13:50:07;;;;;;;13.03;9.27;;;;;;;;;;5073185;28;20885;-72
2022/03/26 13:52:37;;;;;;;10.80;8.63;;;;;;;;;;5075064;28;20449;-72
2022/03/26 13:55:19;;;;;;;12.43;8.83;;;;;;;;;;5075086;28;20457;-71
2022/03/26 13:57:50;;;;;;;10.93;9.33;;;;;;;;;;5074890;28;20462;-71
2022/03/26 14:00:21;;;;;;;11.80;9.77;;;;;;;;;;5064323;28;20507;-72
2022/03/26 14:02:52;;;;;;;11.30;8.77;;;;;;;;;;5073980;28;20487;-71
2022/03/26 14:05:27;;;;;;;16.00;13.50;;;;;;;;;;5073344;28;20816;-72
2022/03/26 14:08:04;;;;;;;14.33;12.97;;;;;;;;;;5073800;28;20463;-72
2022/03/26 14:10:33;;;;;;;24.27;22.37;;;;;;;;;;5073639;28;20471;-72
2022/03/26 14:13:05;;;;;;;8.00;6.13;;;;;;;;;;5071083;28;21109;-72
2022/03/26 14:15:54;;;;;;;13.67;9.27;;;;;;;;;;5061426;28;20861;-72
2022/03/26 14:18:22;;;;;;;16.53;11.90;;;;;;;;;;5055565;28;20449;-72
2022/03/26 14:20:52;;;;;;;16.10;14.50;;;;;;;;;;5055351;28;20544;-71
2022/03/26 14:23:23;;;;;;;7.13;5.47;;;;;;;;;;5064254;28;20488;-71
2022/03/26 14:25:54;;;;;;;10.17;9.17;;;;;;;;;;5065185;28;20529;-73
2022/03/26 14:28:34;;;;;;;12.00;9.80;;;;;;;;;;5065245;28;20543;-72
2022/03/26 14:31:03;;;;;;;9.10;6.60;;;;;;;;;;5062361;28;20484;-72
2022/03/26 14:33:31;;;;;;;10.57;8.97;;;;;;;;;;5055566;28;20461;-72
2022/03/26 14:36:01;;;;;;;16.17;12.80;;;;;;;;;;5054831;28;20765;-72
2022/03/26 14:38:42;;;;;;;13.20;11.43;;;;;;;;;;5055203;28;20461;-73
2022/03/26 14:41:10;;;;;;;14.63;10.87;;;;;;;;;;5054303;28;20492;-72
2022/03/26 14:43:38;;;;;;;12.93;11.30;;;;;;;;;;5056280;28;20547;-72
2022/03/26 14:46:07;;;;;;;17.80;15.40;;;;;;;;;;5060857;28;20472;-73
2022/03/26 14:48:37;;;;;;;20.13;18.33;;;;;;;;;;5070820;28;20529;-72
2022/03/26 14:51:08;;;;;;;13.23;10.20;;;;;;;;;;5072734;28;20542;-72
2022/03/26 14:53:37;;;;;;;14.83;10.30;;;;;;;;;;5070944;28;20449;-71